sensor_id;sensor_type;location;lat;lon;timestamp;pressure;altitude;pressure_sealevel;temperature;humidity
8703;BME280;9002;42.708;23.186;2023-07-29T00:00:38;94842.53;;;24.02;44.58
8703;BME280;9002;42.708;23.186;2023-07-29T00:03:05;94846.72;;;24.19;44.50
8703;BME280;9002;42.708;23.186;2023-07-29T00:05:31;94851.97;;;24.34;44.43
8703;BME280;9002;42.708;23.186;2023-07-29T00:07:58;94848.28;;;24.35;44.02
8703;BME280;9002;42.708;23.186;2023-07-29T00:10:26;94849.94;;;23.95;44.91
8703;BME280;9002;42.708;23.186;2023-07-29T00:12:53;94852.06;;;23.73;45.21
8703;BME280;9002;42.708;23.186;2023-07-29T00:15:20;94859.19;;;23.83;44.81
8703;BME280;9002;42.708;23.186;2023-07-29T00:17:47;94852.31;;;23.77;44.81
8703;BME280;9002;42.708;23.186;2023-07-29T00:20:13;94852.03;;;23.98;44.71
8703;BME280;9002;42.708;23.186;2023-07-29T00:22:40;94828.53;;;23.77;44.83
8703;BME280;9002;42.708;23.186;2023-07-29T00:25:07;94839.94;;;23.62;45.23
8703;BME280;9002;42.708;23.186;2023-07-29T00:27:36;94850.47;;;23.42;46.00
8703;BME280;9002;42.708;23.186;2023-07-29T00:30:03;94837.78;;;23.84;44.49
8703;BME280;9002;42.708;23.186;2023-07-29T00:32:30;94839.09;;;23.92;44.39
8703;BME280;9002;42.708;23.186;2023-07-29T00:34:56;94840.44;;;23.84;43.98
8703;BME280;9002;42.708;23.186;2023-07-29T00:37:26;94840.19;;;23.55;45.13
8703;BME280;9002;42.708;23.186;2023-07-29T00:39:53;94832.75;;;23.27;45.73
8703;BME280;9002;42.708;23.186;2023-07-29T00:42:20;94827.72;;;23.15;45.91
8703;BME280;9002;42.708;23.186;2023-07-29T00:44:48;94841.94;;;22.89;46.81
8703;BME280;9002;42.708;23.186;2023-07-29T00:47:15;94819.50;;;22.86;46.65
8703;BME280;9002;42.708;23.186;2023-07-29T00:49:42;94831.41;;;23.04;46.60
8703;BME280;9002;42.708;23.186;2023-07-29T00:52:10;94815.00;;;22.87;46.82
8703;BME280;9002;42.708;23.186;2023-07-29T00:54:38;94833.81;;;23.41;45.95
8703;BME280;9002;42.708;23.186;2023-07-29T00:57:05;94844.38;;;23.36;46.12
8703;BME280;9002;42.708;23.186;2023-07-29T00:59:34;94842.19;;;22.92;46.59
8703;BME280;9002;42.708;23.186;2023-07-29T01:02:03;94827.19;;;23.03;46.86
8703;BME280;9002;42.708;23.186;2023-07-29T01:04:29;94830.88;;;23.22;46.47
8703;BME280;9002;42.708;23.186;2023-07-29T01:07:01;94835.06;;;22.93;47.25
8703;BME280;9002;42.708;23.186;2023-07-29T01:09:33;94830.28;;;22.80;47.64
8703;BME280;9002;42.708;23.186;2023-07-29T01:12:10;94829.25;;;22.91;47.81
8703;BME280;9002;42.708;23.186;2023-07-29T01:14:41;94834.56;;;22.96;47.19
8703;BME280;9002;42.708;23.186;2023-07-29T01:17:17;94821.53;;;22.74;47.38
8703;BME280;9002;42.708;23.186;2023-07-29T01:19:59;94829.16;;;22.70;47.71
8703;BME280;9002;42.708;23.186;2023-07-29T01:22:27;94833.13;;;22.68;48.19
8703;BME280;9002;42.708;23.186;2023-07-29T01:24:56;94837.09;;;22.70;47.94
8703;BME280;9002;42.708;23.186;2023-07-29T01:27:23;94837.81;;;22.51;48.46
8703;BME280;9002;42.708;23.186;2023-07-29T01:29:50;94836.63;;;22.79;47.99
8703;BME280;9002;42.708;23.186;2023-07-29T01:32:19;94820.22;;;22.71;47.43
8703;BME280;9002;42.708;23.186;2023-07-29T01:34:53;94834.53;;;22.86;47.57
8703;BME280;9002;42.708;23.186;2023-07-29T01:37:26;94833.22;;;22.88;47.09
8703;BME280;9002;42.708;23.186;2023-07-29T01:39:58;94834.66;;;22.49;48.46
8703;BME280;9002;42.708;23.186;2023-07-29T01:42:28;94835.50;;;22.69;48.03
8703;BME280;9002;42.708;23.186;2023-07-29T01:44:56;94815.13;;;22.55;48.26
8703;BME280;9002;42.708;23.186;2023-07-29T01:47:23;94834.81;;;22.27;48.77
8703;BME280;9002;42.708;23.186;2023-07-29T01:49:49;94837.72;;;22.30;49.52
8703;BME280;9002;42.708;23.186;2023-07-29T01:52:16;94836.81;;;22.10;49.98
8703;BME280;9002;42.708;23.186;2023-07-29T01:54:43;94834.09;;;21.94;50.07
8703;BME280;9002;42.708;23.186;2023-07-29T01:57:11;94837.28;;;22.01;50.20
8703;BME280;9002;42.708;23.186;2023-07-29T01:59:38;94842.41;;;22.18;49.78
8703;BME280;9002;42.708;23.186;2023-07-29T02:02:05;94840.66;;;22.39;49.28
8703;BME280;9002;42.708;23.186;2023-07-29T02:04:31;94837.50;;;22.37;49.45
8703;BME280;9002;42.708;23.186;2023-07-29T02:06:58;94843.22;;;22.24;49.15
8703;BME280;9002;42.708;23.186;2023-07-29T02:09:25;94827.84;;;22.05;49.62
8703;BME280;9002;42.708;23.186;2023-07-29T02:11:52;94835.00;;;22.15;49.68
8703;BME280;9002;42.708;23.186;2023-07-29T02:14:23;94842.75;;;22.32;49.54
8703;BME280;9002;42.708;23.186;2023-07-29T02:16:50;94843.34;;;22.54;48.66
8703;BME280;9002;42.708;23.186;2023-07-29T02:19:16;94833.72;;;22.23;49.42
8703;BME280;9002;42.708;23.186;2023-07-29T02:21:43;94848.22;;;22.20;49.83
8703;BME280;9002;42.708;23.186;2023-07-29T02:24:10;94841.88;;;22.16;50.05
8703;BME280;9002;42.708;23.186;2023-07-29T02:26:36;94845.66;;;21.93;50.57
8703;BME280;9002;42.708;23.186;2023-07-29T02:29:03;94838.97;;;22.18;49.73
8703;BME280;9002;42.708;23.186;2023-07-29T02:31:33;94847.00;;;22.38;49.29
8703;BME280;9002;42.708;23.186;2023-07-29T02:34:02;94841.16;;;22.31;49.53
8703;BME280;9002;42.708;23.186;2023-07-29T02:36:28;94842.78;;;22.37;49.48
8703;BME280;9002;42.708;23.186;2023-07-29T02:38:55;94845.09;;;22.28;49.45
8703;BME280;9002;42.708;23.186;2023-07-29T02:41:22;94847.06;;;22.06;50.12
8703;BME280;9002;42.708;23.186;2023-07-29T02:43:49;94823.00;;;21.92;50.70
8703;BME280;9002;42.708;23.186;2023-07-29T02:46:16;94841.31;;;22.14;50.64
8703;BME280;9002;42.708;23.186;2023-07-29T02:48:45;94846.28;;;22.05;51.26
8703;BME280;9002;42.708;23.186;2023-07-29T02:51:12;94845.31;;;22.22;50.66
8703;BME280;9002;42.708;23.186;2023-07-29T02:53:38;94839.09;;;22.38;50.21
8703;BME280;9002;42.708;23.186;2023-07-29T02:56:05;94849.00;;;22.21;50.66
8703;BME280;9002;42.708;23.186;2023-07-29T02:58:35;94845.41;;;21.95;51.40
8703;BME280;9002;42.708;23.186;2023-07-29T03:01:02;94847.66;;;21.76;52.12
8703;BME280;9002;42.708;23.186;2023-07-29T03:03:29;94850.31;;;21.81;52.38
8703;BME280;9002;42.708;23.186;2023-07-29T03:06:02;94859.25;;;21.75;52.12
8703;BME280;9002;42.708;23.186;2023-07-29T03:08:29;94838.88;;;21.65;52.71
8703;BME280;9002;42.708;23.186;2023-07-29T03:10:56;94861.81;;;22.02;51.51
8703;BME280;9002;42.708;23.186;2023-07-29T03:13:23;94852.78;;;21.93;51.70
8703;BME280;9002;42.708;23.186;2023-07-29T03:15:50;94851.19;;;21.92;51.68
8703;BME280;9002;42.708;23.186;2023-07-29T03:18:16;94864.19;;;22.03;51.40
8703;BME280;9002;42.708;23.186;2023-07-29T03:20:43;94859.22;;;22.12;51.00
8703;BME280;9002;42.708;23.186;2023-07-29T03:23:11;94860.19;;;22.01;51.30
8703;BME280;9002;42.708;23.186;2023-07-29T03:25:38;94860.34;;;21.84;51.40
8703;BME280;9002;42.708;23.186;2023-07-29T03:28:05;94869.53;;;21.77;52.00
8703;BME280;9002;42.708;23.186;2023-07-29T03:30:31;94866.00;;;21.66;52.18
8703;BME280;9002;42.708;23.186;2023-07-29T03:32:58;94869.69;;;21.65;52.72
8703;BME280;9002;42.708;23.186;2023-07-29T03:35:25;94859.81;;;21.50;52.46
8703;BME280;9002;42.708;23.186;2023-07-29T03:37:52;94866.47;;;21.58;52.25
8703;BME280;9002;42.708;23.186;2023-07-29T03:40:20;94861.06;;;21.42;52.65
8703;BME280;9002;42.708;23.186;2023-07-29T03:42:47;94866.44;;;21.53;52.13
8703;BME280;9002;42.708;23.186;2023-07-29T03:45:13;94866.28;;;21.37;52.61
8703;BME280;9002;42.708;23.186;2023-07-29T03:47:40;94859.06;;;21.23;52.68
8703;BME280;9002;42.708;23.186;2023-07-29T03:50:07;94863.78;;;21.53;52.48
8703;BME280;9002;42.708;23.186;2023-07-29T03:52:34;94869.59;;;21.55;52.15
8703;BME280;9002;42.708;23.186;2023-07-29T03:55:01;94865.72;;;21.62;52.13
8703;BME280;9002;42.708;23.186;2023-07-29T03:57:29;94866.31;;;21.69;51.43
8703;BME280;9002;42.708;23.186;2023-07-29T03:59:56;94855.06;;;21.79;51.06
8703;BME280;9002;42.708;23.186;2023-07-29T04:02:22;94855.56;;;21.44;51.90
8703;BME280;9002;42.708;23.186;2023-07-29T04:04:49;94847.59;;;21.39;51.75
8703;BME280;9002;42.708;23.186;2023-07-29T04:07:16;94869.59;;;21.55;52.08
8703;BME280;9002;42.708;23.186;2023-07-29T04:09:43;94881.03;;;21.38;51.92
8703;BME280;9002;42.708;23.186;2023-07-29T04:12:10;94880.44;;;21.58;51.99
8703;BME280;9002;42.708;23.186;2023-07-29T04:14:38;94872.03;;;21.61;51.45
8703;BME280;9002;42.708;23.186;2023-07-29T04:17:05;94874.88;;;21.55;51.67
8703;BME280;9002;42.708;23.186;2023-07-29T04:19:32;94872.28;;;21.60;51.63
8703;BME280;9002;42.708;23.186;2023-07-29T04:21:58;94869.16;;;21.63;51.81
8703;BME280;9002;42.708;23.186;2023-07-29T04:24:25;94870.84;;;21.79;51.10
8703;BME280;9002;42.708;23.186;2023-07-29T04:26:52;94852.50;;;21.57;51.63
8703;BME280;9002;42.708;23.186;2023-07-29T04:29:18;94876.50;;;21.61;51.46
8703;BME280;9002;42.708;23.186;2023-07-29T04:31:47;94870.69;;;21.59;51.96
8703;BME280;9002;42.708;23.186;2023-07-29T04:34:14;94880.56;;;21.73;52.04
8703;BME280;9002;42.708;23.186;2023-07-29T04:36:40;94859.91;;;21.60;51.86
8703;BME280;9002;42.708;23.186;2023-07-29T04:39:07;94887.22;;;21.81;51.99
8703;BME280;9002;42.708;23.186;2023-07-29T04:41:34;94890.13;;;21.85;51.67
8703;BME280;9002;42.708;23.186;2023-07-29T04:44:01;94885.25;;;21.66;51.74
8703;BME280;9002;42.708;23.186;2023-07-29T04:46:28;94861.22;;;21.04;53.76
8703;BME280;9002;42.708;23.186;2023-07-29T04:48:56;94868.66;;;21.34;52.96
8703;BME280;9002;42.708;23.186;2023-07-29T04:51:23;94884.25;;;21.46;52.80
8703;BME280;9002;42.708;23.186;2023-07-29T04:53:50;94876.75;;;21.59;52.37
8703;BME280;9002;42.708;23.186;2023-07-29T04:56:17;94889.78;;;21.76;51.78
8703;BME280;9002;42.708;23.186;2023-07-29T04:58:44;94894.66;;;21.89;51.54
8703;BME280;9002;42.708;23.186;2023-07-29T05:01:11;94893.84;;;21.89;51.35
8703;BME280;9002;42.708;23.186;2023-07-29T05:03:38;94894.69;;;21.94;52.02
8703;BME280;9002;42.708;23.186;2023-07-29T05:06:06;94895.41;;;22.22;50.77
8703;BME280;9002;42.708;23.186;2023-07-29T05:08:33;94898.13;;;22.00;51.53
8703;BME280;9002;42.708;23.186;2023-07-29T05:11:00;94900.94;;;22.20;50.98
8703;BME280;9002;42.708;23.186;2023-07-29T05:13:27;94894.44;;;22.01;51.92
8703;BME280;9002;42.708;23.186;2023-07-29T05:15:53;94902.25;;;22.23;51.05
8703;BME280;9002;42.708;23.186;2023-07-29T05:18:20;94899.06;;;22.16;51.27
8703;BME280;9002;42.708;23.186;2023-07-29T05:20:47;94912.41;;;22.04;50.97
8703;BME280;9002;42.708;23.186;2023-07-29T05:23:15;94898.66;;;22.34;50.07
8703;BME280;9002;42.708;23.186;2023-07-29T05:25:42;94908.25;;;22.13;50.92
8703;BME280;9002;42.708;23.186;2023-07-29T05:28:08;94896.38;;;22.11;50.49
8703;BME280;9002;42.708;23.186;2023-07-29T05:30:35;94906.94;;;22.11;50.69
8703;BME280;9002;42.708;23.186;2023-07-29T05:33:05;94911.50;;;22.25;50.49
8703;BME280;9002;42.708;23.186;2023-07-29T05:35:33;94908.00;;;22.62;49.72
8703;BME280;9002;42.708;23.186;2023-07-29T05:38:00;94915.50;;;22.33;50.18
8703;BME280;9002;42.708;23.186;2023-07-29T05:40:28;94916.38;;;22.44;49.84
8703;BME280;9002;42.708;23.186;2023-07-29T05:42:54;94911.72;;;22.19;51.03
8703;BME280;9002;42.708;23.186;2023-07-29T05:45:21;94905.91;;;22.17;51.13
8703;BME280;9002;42.708;23.186;2023-07-29T05:47:48;94921.00;;;22.26;51.51
8703;BME280;9002;42.708;23.186;2023-07-29T05:50:17;94903.91;;;22.34;50.98
8703;BME280;9002;42.708;23.186;2023-07-29T05:52:44;94918.53;;;22.52;50.62
8703;BME280;9002;42.708;23.186;2023-07-29T05:55:11;94913.66;;;22.81;49.82
8703;BME280;9002;42.708;23.186;2023-07-29T05:57:39;94916.75;;;22.72;49.94
8703;BME280;9002;42.708;23.186;2023-07-29T06:00:07;94908.41;;;22.86;49.50
8703;BME280;9002;42.708;23.186;2023-07-29T06:02:33;94912.31;;;22.78;49.46
8703;BME280;9002;42.708;23.186;2023-07-29T06:05:00;94921.00;;;22.73;49.57
8703;BME280;9002;42.708;23.186;2023-07-29T06:07:28;94912.56;;;22.77;49.68
8703;BME280;9002;42.708;23.186;2023-07-29T06:09:56;94922.41;;;22.91;49.33
8703;BME280;9002;42.708;23.186;2023-07-29T06:12:23;94910.78;;;22.82;49.36
8703;BME280;9002;42.708;23.186;2023-07-29T06:14:52;94909.84;;;22.61;49.99
8703;BME280;9002;42.708;23.186;2023-07-29T06:17:18;94909.75;;;22.93;49.55
8703;BME280;9002;42.708;23.186;2023-07-29T06:19:45;94884.56;;;22.70;49.62
8703;BME280;9002;42.708;23.186;2023-07-29T06:22:12;94905.56;;;23.02;48.62
8703;BME280;9002;42.708;23.186;2023-07-29T06:24:38;94898.19;;;23.04;48.74
8703;BME280;9002;42.708;23.186;2023-07-29T06:27:06;94905.38;;;23.34;48.43
8703;BME280;9002;42.708;23.186;2023-07-29T06:29:32;94899.84;;;23.46;47.93
8703;BME280;9002;42.708;23.186;2023-07-29T06:32:01;94893.28;;;23.59;47.58
8703;BME280;9002;42.708;23.186;2023-07-29T06:34:27;94897.25;;;23.56;47.71
8703;BME280;9002;42.708;23.186;2023-07-29T06:36:54;94865.78;;;23.45;46.83
8703;BME280;9002;42.708;23.186;2023-07-29T06:39:21;94887.69;;;23.40;47.45
8703;BME280;9002;42.708;23.186;2023-07-29T06:41:48;94891.19;;;23.66;47.22
8703;BME280;9002;42.708;23.186;2023-07-29T06:44:14;94884.06;;;23.61;47.27
8703;BME280;9002;42.708;23.186;2023-07-29T06:46:41;94883.50;;;23.69;46.73
8703;BME280;9002;42.708;23.186;2023-07-29T06:49:09;94879.25;;;23.43;47.54
8703;BME280;9002;42.708;23.186;2023-07-29T06:51:36;94882.69;;;23.44;48.33
8703;BME280;9002;42.708;23.186;2023-07-29T06:54:03;94875.81;;;23.37;47.99
8703;BME280;9002;42.708;23.186;2023-07-29T06:56:29;94882.16;;;23.47;48.65
8703;BME280;9002;42.708;23.186;2023-07-29T06:58:56;94880.09;;;23.59;47.84
8703;BME280;9002;42.708;23.186;2023-07-29T07:01:23;94887.47;;;23.72;47.74
8703;BME280;9002;42.708;23.186;2023-07-29T07:03:49;94886.97;;;23.65;47.80
8703;BME280;9002;42.708;23.186;2023-07-29T07:06:21;94891.13;;;23.35;48.22
8703;BME280;9002;42.708;23.186;2023-07-29T07:08:50;94882.66;;;23.33;48.42
8703;BME280;9002;42.708;23.186;2023-07-29T07:11:17;94883.53;;;23.64;47.67
8703;BME280;9002;42.708;23.186;2023-07-29T07:13:44;94884.81;;;23.97;47.09
8703;BME280;9002;42.708;23.186;2023-07-29T07:16:11;94874.25;;;23.97;46.95
8703;BME280;9002;42.708;23.186;2023-07-29T07:18:37;94877.94;;;24.01;46.63
8703;BME280;9002;42.708;23.186;2023-07-29T07:21:04;94879.53;;;24.02;46.54
8703;BME280;9002;42.708;23.186;2023-07-29T07:23:32;94873.72;;;24.11;46.67
8703;BME280;9002;42.708;23.186;2023-07-29T07:25:59;94869.47;;;24.20;46.59
8703;BME280;9002;42.708;23.186;2023-07-29T07:28:25;94855.69;;;24.28;46.56
8703;BME280;9002;42.708;23.186;2023-07-29T07:30:52;94868.88;;;24.48;46.29
8703;BME280;9002;42.708;23.186;2023-07-29T07:33:21;94871.72;;;24.72;45.89
8703;BME280;9002;42.708;23.186;2023-07-29T07:35:47;94870.41;;;24.64;46.13
8703;BME280;9002;42.708;23.186;2023-07-29T07:38:14;94852.44;;;24.56;46.07
8703;BME280;9002;42.708;23.186;2023-07-29T07:40:52;94860.91;;;24.58;45.73
8703;BME280;9002;42.708;23.186;2023-07-29T07:43:20;94865.09;;;24.69;46.21
8703;BME280;9002;42.708;23.186;2023-07-29T07:45:47;94851.59;;;24.76;46.00
8703;BME280;9002;42.708;23.186;2023-07-29T07:48:13;94860.75;;;24.99;45.61
8703;BME280;9002;42.708;23.186;2023-07-29T07:50:42;94864.47;;;24.88;45.55
8703;BME280;9002;42.708;23.186;2023-07-29T07:53:09;94868.44;;;24.90;45.43
8703;BME280;9002;42.708;23.186;2023-07-29T07:55:36;94868.16;;;24.92;45.57
8703;BME280;9002;42.708;23.186;2023-07-29T07:58:04;94871.31;;;25.04;44.48
8703;BME280;9002;42.708;23.186;2023-07-29T08:00:31;94875.72;;;25.19;43.65
8703;BME280;9002;42.708;23.186;2023-07-29T08:02:57;94867.81;;;25.14;43.75
8703;BME280;9002;42.708;23.186;2023-07-29T08:05:24;94862.31;;;25.05;43.72
8703;BME280;9002;42.708;23.186;2023-07-29T08:07:51;94857.78;;;25.06;43.66
8703;BME280;9002;42.708;23.186;2023-07-29T08:10:17;94868.25;;;25.31;43.29
8703;BME280;9002;42.708;23.186;2023-07-29T08:12:44;94862.72;;;25.27;43.05
8703;BME280;9002;42.708;23.186;2023-07-29T08:15:12;94860.34;;;25.26;42.86
8703;BME280;9002;42.708;23.186;2023-07-29T08:17:39;94870.38;;;25.29;43.01
8703;BME280;9002;42.708;23.186;2023-07-29T08:20:06;94871.41;;;25.33;43.37
8703;BME280;9002;42.708;23.186;2023-07-29T08:22:33;94877.00;;;25.26;43.58
8703;BME280;9002;42.708;23.186;2023-07-29T08:25:00;94865.56;;;25.36;43.97
8703;BME280;9002;42.708;23.186;2023-07-29T08:27:27;94871.94;;;25.35;43.47
8703;BME280;9002;42.708;23.186;2023-07-29T08:29:54;94852.31;;;25.36;43.12
8703;BME280;9002;42.708;23.186;2023-07-29T08:32:22;94868.06;;;25.56;42.62
8703;BME280;9002;42.708;23.186;2023-07-29T08:34:48;94860.38;;;25.55;43.03
8703;BME280;9002;42.708;23.186;2023-07-29T08:37:15;94869.28;;;25.74;42.84
8703;BME280;9002;42.708;23.186;2023-07-29T08:39:42;94860.50;;;25.79;42.75
8703;BME280;9002;42.708;23.186;2023-07-29T08:42:11;94863.47;;;25.72;42.38
8703;BME280;9002;42.708;23.186;2023-07-29T08:44:40;94856.41;;;25.91;41.72
8703;BME280;9002;42.708;23.186;2023-07-29T08:47:08;94845.63;;;25.83;41.39
8703;BME280;9002;42.708;23.186;2023-07-29T08:49:36;94833.56;;;25.95;41.73
8703;BME280;9002;42.708;23.186;2023-07-29T08:52:04;94849.41;;;26.00;42.05
8703;BME280;9002;42.708;23.186;2023-07-29T08:54:31;94847.78;;;26.05;42.01
8703;BME280;9002;42.708;23.186;2023-07-29T08:56:58;94840.56;;;25.86;41.78
8703;BME280;9002;42.708;23.186;2023-07-29T08:59:25;94844.56;;;26.08;41.59
8703;BME280;9002;42.708;23.186;2023-07-29T09:01:53;94848.94;;;25.98;41.19
8703;BME280;9002;42.708;23.186;2023-07-29T09:04:20;94846.09;;;26.14;40.77
8703;BME280;9002;42.708;23.186;2023-07-29T09:06:51;94838.72;;;26.11;41.24
8703;BME280;9002;42.708;23.186;2023-07-29T09:09:18;94840.56;;;26.10;41.22
8703;BME280;9002;42.708;23.186;2023-07-29T09:11:44;94826.97;;;26.17;40.43
8703;BME280;9002;42.708;23.186;2023-07-29T09:14:12;94810.56;;;26.15;40.49
8703;BME280;9002;42.708;23.186;2023-07-29T09:16:39;94824.25;;;26.51;39.22
8703;BME280;9002;42.708;23.186;2023-07-29T09:19:06;94826.50;;;26.81;38.38
8703;BME280;9002;42.708;23.186;2023-07-29T09:21:33;94822.34;;;26.75;37.86
8703;BME280;9002;42.708;23.186;2023-07-29T09:24:04;94819.31;;;26.63;37.90
8703;BME280;9002;42.708;23.186;2023-07-29T09:26:32;94814.78;;;26.45;36.93
8703;BME280;9002;42.708;23.186;2023-07-29T09:29:00;94814.28;;;26.61;36.84
8703;BME280;9002;42.708;23.186;2023-07-29T09:31:28;94814.47;;;26.89;35.97
8703;BME280;9002;42.708;23.186;2023-07-29T09:33:56;94818.25;;;26.83;36.28
8703;BME280;9002;42.708;23.186;2023-07-29T09:36:23;94815.22;;;27.13;34.49
8703;BME280;9002;42.708;23.186;2023-07-29T09:38:52;94787.66;;;27.09;34.94
8703;BME280;9002;42.708;23.186;2023-07-29T09:41:23;94802.00;;;27.27;35.34
8703;BME280;9002;42.708;23.186;2023-07-29T09:43:55;94787.69;;;27.23;34.82
8703;BME280;9002;42.708;23.186;2023-07-29T09:46:23;94785.19;;;27.32;35.36
8703;BME280;9002;42.708;23.186;2023-07-29T09:48:52;94792.13;;;27.46;34.35
8703;BME280;9002;42.708;23.186;2023-07-29T09:51:19;94796.31;;;27.34;34.14
8703;BME280;9002;42.708;23.186;2023-07-29T09:53:47;94788.50;;;27.56;34.68
8703;BME280;9002;42.708;23.186;2023-07-29T09:56:15;94778.47;;;27.53;34.79
8703;BME280;9002;42.708;23.186;2023-07-29T09:58:44;94782.28;;;27.66;34.44
8703;BME280;9002;42.708;23.186;2023-07-29T10:01:12;94789.16;;;27.67;34.27
8703;BME280;9002;42.708;23.186;2023-07-29T10:03:39;94783.44;;;27.73;33.88
8703;BME280;9002;42.708;23.186;2023-07-29T10:06:07;94784.25;;;27.87;33.95
8703;BME280;9002;42.708;23.186;2023-07-29T10:08:34;94783.28;;;27.83;33.66
8703;BME280;9002;42.708;23.186;2023-07-29T10:11:05;94760.72;;;27.81;33.38
8703;BME280;9002;42.708;23.186;2023-07-29T10:13:33;94773.22;;;27.80;33.72
8703;BME280;9002;42.708;23.186;2023-07-29T10:16:02;94750.78;;;27.73;33.52
8703;BME280;9002;42.708;23.186;2023-07-29T10:18:31;94769.22;;;27.97;33.34
8703;BME280;9002;42.708;23.186;2023-07-29T10:21:00;94774.03;;;27.94;33.75
8703;BME280;9002;42.708;23.186;2023-07-29T10:23:28;94762.31;;;28.50;33.06
8703;BME280;9002;42.708;23.186;2023-07-29T10:26:02;94747.03;;;29.06;31.72
8703;BME280;9002;42.708;23.186;2023-07-29T10:28:30;94744.81;;;29.75;30.78
8703;BME280;9002;42.708;23.186;2023-07-29T10:30:57;94722.84;;;30.09;29.68
8703;BME280;9002;42.708;23.186;2023-07-29T10:33:26;94736.22;;;30.17;29.91
8703;BME280;9002;42.708;23.186;2023-07-29T10:35:53;94743.41;;;30.00;29.76
8703;BME280;9002;42.708;23.186;2023-07-29T10:38:21;94740.81;;;29.86;30.34
8703;BME280;9002;42.708;23.186;2023-07-29T10:40:51;94737.97;;;29.82;30.84
8703;BME280;9002;42.708;23.186;2023-07-29T10:43:20;94729.66;;;29.84;31.01
8703;BME280;9002;42.708;23.186;2023-07-29T10:45:50;94736.34;;;30.04;29.94
8703;BME280;9002;42.708;23.186;2023-07-29T10:48:42;94722.66;;;29.97;30.50
8703;BME280;9002;42.708;23.186;2023-07-29T10:51:25;94733.56;;;30.17;30.12
8703;BME280;9002;42.708;23.186;2023-07-29T10:53:55;94709.88;;;30.25;28.99
8703;BME280;9002;42.708;23.186;2023-07-29T10:56:30;94721.69;;;30.41;29.35
8703;BME280;9002;42.708;23.186;2023-07-29T10:59:00;94725.81;;;30.55;28.94
8703;BME280;9002;42.708;23.186;2023-07-29T11:01:29;94720.59;;;30.50;28.92
8703;BME280;9002;42.708;23.186;2023-07-29T11:04:24;94720.00;;;30.53;28.62
8703;BME280;9002;42.708;23.186;2023-07-29T11:07:20;94710.19;;;30.23;28.31
8703;BME280;9002;42.708;23.186;2023-07-29T11:10:02;94715.00;;;30.04;28.26
8703;BME280;9002;42.708;23.186;2023-07-29T11:12:41;94710.66;;;30.25;28.58
8703;BME280;9002;42.708;23.186;2023-07-29T11:15:16;94684.47;;;30.44;28.43
8703;BME280;9002;42.708;23.186;2023-07-29T11:17:45;94665.94;;;30.57;28.66
8703;BME280;9002;42.708;23.186;2023-07-29T11:20:15;94697.09;;;30.96;28.99
8703;BME280;9002;42.708;23.186;2023-07-29T11:22:42;94694.53;;;31.25;27.71
8703;BME280;9002;42.708;23.186;2023-07-29T11:25:10;94689.97;;;31.26;26.77
8703;BME280;9002;42.708;23.186;2023-07-29T11:27:37;94701.59;;;31.47;26.51
8703;BME280;9002;42.708;23.186;2023-07-29T11:30:05;94698.09;;;31.64;27.25
8703;BME280;9002;42.708;23.186;2023-07-29T11:32:34;94702.81;;;31.67;27.14
8703;BME280;9002;42.708;23.186;2023-07-29T11:35:02;94692.09;;;31.75;27.12
8703;BME280;9002;42.708;23.186;2023-07-29T11:37:32;94696.66;;;31.66;26.90
8703;BME280;9002;42.708;23.186;2023-07-29T11:39:59;94690.16;;;31.84;26.15
8703;BME280;9002;42.708;23.186;2023-07-29T11:42:26;94668.50;;;31.60;26.41
8703;BME280;9002;42.708;23.186;2023-07-29T11:44:56;94682.28;;;31.79;26.01
8703;BME280;9002;42.708;23.186;2023-07-29T11:47:25;94662.34;;;31.77;26.52
8703;BME280;9002;42.708;23.186;2023-07-29T11:49:52;94676.94;;;32.17;26.01
8703;BME280;9002;42.708;23.186;2023-07-29T11:52:19;94680.50;;;32.51;26.08
8703;BME280;9002;42.708;23.186;2023-07-29T11:54:48;94677.31;;;32.58;25.68
8703;BME280;9002;42.708;23.186;2023-07-29T11:57:16;94674.00;;;32.61;26.00
8703;BME280;9002;42.708;23.186;2023-07-29T11:59:43;94674.38;;;32.71;25.95
8703;BME280;9002;42.708;23.186;2023-07-29T12:02:12;94669.72;;;32.89;25.79
8703;BME280;9002;42.708;23.186;2023-07-29T12:04:40;94671.66;;;32.80;25.70
8703;BME280;9002;42.708;23.186;2023-07-29T12:07:10;94664.47;;;32.93;25.65
8703;BME280;9002;42.708;23.186;2023-07-29T12:09:39;94659.25;;;33.08;25.42
8703;BME280;9002;42.708;23.186;2023-07-29T12:12:08;94661.28;;;33.11;25.30
8703;BME280;9002;42.708;23.186;2023-07-29T12:14:35;94632.25;;;32.80;25.37
8703;BME280;9002;42.708;23.186;2023-07-29T12:17:03;94654.34;;;33.31;25.62
8703;BME280;9002;42.708;23.186;2023-07-29T12:19:34;94631.44;;;33.46;24.04
8703;BME280;9002;42.708;23.186;2023-07-29T12:22:04;94651.66;;;33.10;24.20
8703;BME280;9002;42.708;23.186;2023-07-29T12:24:32;94617.31;;;32.71;24.31
8703;BME280;9002;42.708;23.186;2023-07-29T12:26:59;94640.66;;;32.91;24.55
8703;BME280;9002;42.708;23.186;2023-07-29T12:29:28;94639.16;;;33.14;23.56
8703;BME280;9002;42.708;23.186;2023-07-29T12:31:59;94647.38;;;32.97;23.88
8703;BME280;9002;42.708;23.186;2023-07-29T12:34:27;94631.53;;;32.92;23.44
8703;BME280;9002;42.708;23.186;2023-07-29T12:36:55;94642.28;;;33.37;24.06
8703;BME280;9002;42.708;23.186;2023-07-29T12:39:23;94637.59;;;33.71;23.30
8703;BME280;9002;42.708;23.186;2023-07-29T12:41:53;94635.75;;;33.84;23.54
8703;BME280;9002;42.708;23.186;2023-07-29T12:44:20;94641.22;;;33.99;22.96
8703;BME280;9002;42.708;23.186;2023-07-29T12:46:48;94628.47;;;33.96;23.56
8703;BME280;9002;42.708;23.186;2023-07-29T12:49:15;94643.09;;;34.11;23.47
8703;BME280;9002;42.708;23.186;2023-07-29T12:51:41;94637.94;;;34.42;23.03
8703;BME280;9002;42.708;23.186;2023-07-29T12:54:08;94636.25;;;34.78;23.14
8703;BME280;9002;42.708;23.186;2023-07-29T12:56:35;94632.88;;;34.93;22.71
8703;BME280;9002;42.708;23.186;2023-07-29T12:59:02;94615.66;;;34.82;22.14
8703;BME280;9002;42.708;23.186;2023-07-29T13:01:29;94633.22;;;35.20;22.48
8703;BME280;9002;42.708;23.186;2023-07-29T13:03:57;94622.66;;;34.99;22.13
8703;BME280;9002;42.708;23.186;2023-07-29T13:06:24;94627.91;;;35.23;22.55
8703;BME280;9002;42.708;23.186;2023-07-29T13:08:51;94630.91;;;35.50;22.25
8703;BME280;9002;42.708;23.186;2023-07-29T13:11:17;94627.88;;;35.83;21.99
8703;BME280;9002;42.708;23.186;2023-07-29T13:13:44;94621.78;;;35.54;20.94